Pagina principale
Immagini satellite Previsioni 10 giorniClimaMeteomar Cicloni Fulmine AeroportiFAQ Bollettino Informazioni
Tempo : Europa Africa America settentrionale America meridionale Asia Australia-Oceania Altri
Lingue Contatto

Genova, Italia

Aeroporto di Genova-Sestri

latitudine: 44-25N, longitudine: 008-51E, altezza: 2 m


METAR: LIMJ 301120Z 12011KT 9999 SCT015 BKN022 18/15 Q1017
TAF: LIMJ 301100Z 3012/3112 15006KT 9999 BKN025

Ora: 14:11 (12:11 UTC)

Osservazione

Il bollettino è stato emesso 51 minuti fa, alle 11:20 UTC
Vento 11 kt da est/sud-est
Temperature 18°C
Umidità 83%
Pressione 1017 hPa
Visibilità 10 km o più
Nubi sparse ad un'altezza di 1500 ft
Nuvoloso ad un'altezza di 2200 ft

Cambiare le unità

Previsione

Il bollettino è stato emesso 1 ora e 11 minuti fa, alle 11:00 UTC
Previsione valida dal 30 alle 12 UTC al 31 alle 12 UTC
Vento 6 kt da sud/sud-est
Visibilità 10 km o più
Nuvoloso ad un'altezza di 2500 ft
Le informazioni contenute in questo sito formano oggetto di una clausola di esclusione di responsabilità
Tempo : Europa Africa America settentrionale America meridionale Asia Australia-Oceania Altri
Immagini satellite Previsioni 10 giorniClimaMeteomar Cicloni Fulmine AeroportiFAQ Lingue Contatto Bollettino Informazioni